PWSweather.com
Personal Weather Stations
Station Observations
BC052CD
On, Kemptville, ON K0G 1J0

OnKemptville, ON K0G 1J0

Lat: 45.0173179, Lon: -75.6329355

Elevation: 295

Station Type: National Geographic 265NC

http://kerrentweather.ca

High Low Average
Temperature 52.5°F11.4°C 27.5°F-2.5°C 43.8°F6.6°C
Dew Point 52.5°F11.4°C 17.7°F-7.9°C 41.6°F5.3°C
Winds 5.6 mph 9.0 kmh Calm Calm 2.0 mph ESE3.2 kmh ESE
Wind Gusts 21.0 mph33.8 kmh 2.8 mph4.5 kmh 8.0 mph12.9 kmh
Humidity 100% 63% 92%
Pressure 30.71 in1040.0 mb 30.05 in1017.6 mb -
Precipitation 0.29 in7.4 mm - -
Hour Temp Dew Point Humidity Winds Wind Gusts Pressure Precip Precip Rate Daily Precip Total
12:00 AM 51.6°F10.9°C 51.6°F10.9°C 100% Calm Calm 6.7 mph10.8 kmh 30.10 in1019.3 mb 0.00 in0.0 mm 0.00 in0.0 mm 0.00 in0.0 mm
12:15 AM 51.8°F11.0°C 51.8°F11.0°C 100% 2.0 mph ENE3.2 kmh ENE 6.7 mph10.8 kmh 30.09 in1019.0 mb 0.00 in0.0 mm 0.00 in0.0 mm 0.00 in0.0 mm
12:30 AM 51.8°F11.0°C 51.8°F11.0°C 100% 0.8 mph ENE1.3 kmh ENE 5.6 mph9.0 kmh 30.08 in1018.6 mb 0.00 in0.0 mm 0.00 in0.0 mm 0.00 in0.0 mm
12:45 AM 51.8°F11.0°C 51.8°F11.0°C 100% 0.8 mph ENE1.3 kmh ENE 5.6 mph9.0 kmh 30.07 in1018.3 mb 0.00 in0.0 mm 0.00 in0.0 mm 0.00 in0.0 mm
01:00 AM 52.0°F11.1°C 52.0°F11.1°C 100% 0.8 mph ENE1.3 kmh ENE 5.6 mph9.0 kmh 30.07 in1018.3 mb 0.00 in0.0 mm 0.00 in0.0 mm 0.00 in0.0 mm
01:15 AM 52.0°F11.1°C 52.0°F11.1°C 100% 2.0 mph ENE3.2 kmh ENE 8.7 mph14.0 kmh 30.07 in1018.3 mb 0.00 in0.0 mm 0.00 in0.0 mm 0.00 in0.0 mm
01:30 AM 52.5°F11.4°C 52.5°F11.4°C 100% 2.0 mph ENE3.2 kmh ENE 8.7 mph14.0 kmh 30.07 in1018.3 mb 0.00 in0.0 mm 0.00 in0.0 mm 0.00 in0.0 mm
01:45 AM 52.3°F11.3°C 52.3°F11.3°C 100% 3.9 mph ENE6.3 kmh ENE 8.7 mph14.0 kmh 30.07 in1018.3 mb 0.00 in0.0 mm 0.00 in0.0 mm 0.00 in0.0 mm
02:00 AM 52.3°F11.3°C 52.3°F11.3°C 100% 0.8 mph ENE1.3 kmh ENE 10.3 mph16.6 kmh 30.07 in1018.3 mb 0.00 in0.0 mm 0.00 in0.0 mm 0.00 in0.0 mm
02:15 AM 52.0°F11.1°C 52.0°F11.1°C 100% 2.0 mph ENE3.2 kmh ENE 7.5 mph12.1 kmh 30.07 in1018.3 mb 0.00 in0.0 mm 0.00 in0.0 mm 0.00 in0.0 mm
02:30 AM 51.8°F11.0°C 51.8°F11.0°C 100% 2.8 mph ENE4.5 kmh ENE 7.5 mph12.1 kmh 30.07 in1018.3 mb 0.00 in0.0 mm 0.00 in0.0 mm 0.00 in0.0 mm
02:45 AM 51.6°F10.9°C 51.6°F10.9°C 100% 0.8 mph ENE1.3 kmh ENE 4.8 mph7.7 kmh 30.06 in1017.9 mb 0.00 in0.0 mm 0.00 in0.0 mm 0.00 in0.0 mm
03:00 AM 51.6°F10.9°C 51.6°F10.9°C 100% 2.0 mph ENE3.2 kmh ENE 4.8 mph7.7 kmh 30.06 in1017.9 mb 0.00 in0.0 mm 0.00 in0.0 mm 0.00 in0.0 mm
03:15 AM 51.6°F10.9°C 51.6°F10.9°C 100% 2.0 mph ENE3.2 kmh ENE 7.5 mph12.1 kmh 30.05 in1017.6 mb 0.00 in0.0 mm 0.00 in0.0 mm 0.00 in0.0 mm
03:30 AM 51.6°F10.9°C 51.6°F10.9°C 100% 0.8 mph ENE1.3 kmh ENE 9.5 mph15.3 kmh 30.06 in1017.9 mb 0.00 in0.0 mm 0.00 in0.0 mm 0.00 in0.0 mm
03:45 AM 51.3°F10.7°C 51.3°F10.7°C 100% 2.0 mph ENE3.2 kmh ENE 7.5 mph12.1 kmh 30.06 in1017.9 mb 0.00 in0.0 mm 0.00 in0.0 mm 0.00 in0.0 mm
04:00 AM 50.9°F10.5°C 50.9°F10.5°C 100% 2.8 mph ENE4.5 kmh ENE 8.7 mph14.0 kmh 30.06 in1017.9 mb 0.00 in0.0 mm 0.00 in0.0 mm 0.00 in0.0 mm
04:15 AM 51.6°F10.9°C 51.6°F10.9°C 100% 4.8 mph ENE7.7 kmh ENE 9.5 mph15.3 kmh 30.06 in1017.9 mb 0.00 in0.0 mm 0.00 in0.0 mm 0.00 in0.0 mm
04:30 AM 51.3°F10.7°C 51.3°F10.7°C 100% 2.8 mph ENE4.5 kmh ENE 6.7 mph10.8 kmh 30.07 in1018.3 mb 0.00 in0.0 mm 0.00 in0.0 mm 0.00 in0.0 mm
04:45 AM 51.1°F10.6°C 51.1°F10.6°C 100% 2.0 mph ENE3.2 kmh ENE 7.5 mph12.1 kmh 30.07 in1018.3 mb 0.00 in0.0 mm 0.00 in0.0 mm 0.00 in0.0 mm
05:00 AM 51.1°F10.6°C 51.1°F10.6°C 100% Calm Calm 8.7 mph14.0 kmh 30.07 in1018.3 mb 0.00 in0.0 mm 0.00 in0.0 mm 0.00 in0.0 mm
05:15 AM 50.5°F10.3°C 50.5°F10.3°C 100% 4.8 mph ENE7.7 kmh ENE 7.5 mph12.1 kmh 30.07 in1018.3 mb 0.00 in0.0 mm 0.00 in0.0 mm 0.00 in0.0 mm
05:30 AM 50.4°F10.2°C 50.4°F10.2°C 100% 2.0 mph ENE3.2 kmh ENE 6.7 mph10.8 kmh 30.07 in1018.3 mb 0.00 in0.0 mm 0.00 in0.0 mm 0.00 in0.0 mm
05:45 AM 49.8°F9.9°C 49.8°F9.9°C 100% 2.8 mph ENE4.5 kmh ENE 7.5 mph12.1 kmh 30.07 in1018.3 mb 0.00 in0.0 mm 0.00 in0.0 mm 0.00 in0.0 mm
06:00 AM 49.3°F9.6°C 49.3°F9.6°C 100% 0.8 mph ENE1.3 kmh ENE 4.8 mph7.7 kmh 30.07 in1018.3 mb 0.00 in0.0 mm 0.00 in0.0 mm 0.00 in0.0 mm
06:15 AM 49.1°F9.5°C 49.1°F9.5°C 100% Calm Calm 4.8 mph7.7 kmh 30.07 in1018.3 mb 0.00 in0.0 mm 0.00 in0.0 mm 0.00 in0.0 mm
06:30 AM 48.7°F9.3°C 48.7°F9.3°C 100% 0.8 mph ENE1.3 kmh ENE 4.8 mph7.7 kmh 30.07 in1018.3 mb 0.00 in0.0 mm 0.00 in0.0 mm 0.00 in0.0 mm
06:45 AM 48.2°F9.0°C 48.2°F9.0°C 100% 0.8 mph ENE1.3 kmh ENE 6.7 mph10.8 kmh 30.06 in1017.9 mb 0.00 in0.0 mm 0.00 in0.0 mm 0.00 in0.0 mm
07:00 AM 48.2°F9.0°C 48.2°F9.0°C 100% 2.0 mph ENE3.2 kmh ENE 7.5 mph12.1 kmh 30.07 in1018.3 mb 0.00 in0.0 mm 0.00 in0.0 mm 0.00 in0.0 mm
07:15 AM 48.9°F9.4°C 48.9°F9.4°C 100% 3.9 mph ENE6.3 kmh ENE 7.5 mph12.1 kmh 30.08 in1018.6 mb 0.00 in0.0 mm 0.00 in0.0 mm 0.00 in0.0 mm
07:30 AM 49.1°F9.5°C 49.1°F9.5°C 100% 2.0 mph ENE3.2 kmh ENE 6.7 mph10.8 kmh 30.09 in1019.0 mb 0.00 in0.0 mm 0.00 in0.0 mm 0.00 in0.0 mm
07:45 AM 48.9°F9.4°C 48.9°F9.4°C 100% Calm Calm 5.6 mph9.0 kmh 30.09 in1019.0 mb 0.00 in0.0 mm 0.00 in0.0 mm 0.00 in0.0 mm
08:00 AM 48.9°F9.4°C 48.9°F9.4°C 100% 2.8 mph ENE4.5 kmh ENE 7.5 mph12.1 kmh 30.09 in1019.0 mb 0.00 in0.0 mm 0.00 in0.0 mm 0.00 in0.0 mm
08:15 AM 49.5°F9.7°C 49.5°F9.7°C 100% 2.0 mph ENE3.2 kmh ENE 5.6 mph9.0 kmh 30.08 in1018.6 mb 0.00 in0.0 mm 0.00 in0.0 mm 0.00 in0.0 mm
08:30 AM 49.6°F9.8°C 49.6°F9.8°C 100% 2.8 mph ENE4.5 kmh ENE 7.5 mph12.1 kmh 30.11 in1019.6 mb 0.00 in0.0 mm 0.00 in0.0 mm 0.00 in0.0 mm
08:45 AM 49.6°F9.8°C 49.6°F9.8°C 100% 2.0 mph ENE3.2 kmh ENE 5.6 mph9.0 kmh 30.11 in1019.6 mb 0.09 in2.3 mm 0.36 in9.1 mm 0.09 in2.3 mm
09:00 AM 49.6°F9.8°C 49.6°F9.8°C 100% 2.8 mph ENE4.5 kmh ENE 6.7 mph10.8 kmh 30.12 in1020.0 mb 0.11 in2.8 mm 0.03 in0.8 mm 0.11 in2.8 mm
09:15 AM 50.0°F10.0°C 50.0°F10.0°C 100% 3.9 mph ENE6.3 kmh ENE 8.7 mph14.0 kmh 30.11 in1019.6 mb 0.15 in3.8 mm 0.16 in4.1 mm 0.15 in3.8 mm
09:30 AM 50.4°F10.2°C 50.4°F10.2°C 100% 3.9 mph ENE6.3 kmh ENE 9.5 mph15.3 kmh 30.12 in1020.0 mb 0.17 in4.3 mm 0.08 in2.0 mm 0.17 in4.3 mm
09:45 AM 50.4°F10.2°C 50.4°F10.2°C 100% 3.9 mph ENE6.3 kmh ENE 6.7 mph10.8 kmh 30.12 in1020.0 mb 0.11 in2.8 mm 0.00 in0.0 mm 0.20 in5.1 mm
10:00 AM 50.4°F10.2°C 50.4°F10.2°C 100% 3.9 mph ENE6.3 kmh ENE 8.7 mph14.0 kmh 30.12 in1020.0 mb 0.11 in2.8 mm 0.00 in0.0 mm 0.21 in5.3 mm
10:15 AM 50.5°F10.3°C 50.5°F10.3°C 100% 2.8 mph ENE4.5 kmh ENE 10.3 mph16.6 kmh 30.12 in1020.0 mb 0.08 in2.0 mm 0.00 in0.0 mm 0.22 in5.6 mm
10:30 AM 50.5°F10.3°C 50.5°F10.3°C 100% 2.0 mph ENE3.2 kmh ENE 8.7 mph14.0 kmh 30.13 in1020.3 mb 0.05 in1.3 mm 0.00 in0.0 mm 0.22 in5.6 mm
10:45 AM 50.5°F10.3°C 50.5°F10.3°C 100% 2.0 mph ENE3.2 kmh ENE 12.3 mph19.8 kmh 30.14 in1020.7 mb 0.04 in1.0 mm 0.00 in0.0 mm 0.24 in6.1 mm
11:00 AM 50.0°F10.0°C 50.0°F10.0°C 100% 0.8 mph N1.3 kmh N 8.7 mph14.0 kmh 30.15 in1021.0 mb 0.04 in1.0 mm 0.00 in0.0 mm 0.25 in6.4 mm
11:15 AM 49.5°F9.7°C 49.5°F9.7°C 100% 2.8 mph SSW4.5 kmh SSW 7.5 mph12.1 kmh 30.16 in1021.3 mb 0.03 in0.8 mm 0.00 in0.0 mm 0.25 in6.4 mm
11:30 AM 48.9°F9.4°C 48.9°F9.4°C 100% 3.9 mph SE6.3 kmh SE 9.5 mph15.3 kmh 30.18 in1022.0 mb 0.04 in1.0 mm 0.04 in1.0 mm 0.26 in6.6 mm
11:45 AM 48.7°F9.3°C 48.7°F9.3°C 100% 2.0 mph SE3.2 kmh SE 9.5 mph15.3 kmh 30.19 in1022.4 mb 0.03 in0.8 mm 0.00 in0.0 mm 0.26 in6.6 mm
12:00 PM 48.7°F9.3°C 48.7°F9.3°C 100% 2.8 mph SE4.5 kmh SE 8.7 mph14.0 kmh 30.19 in1022.4 mb 0.03 in0.8 mm 0.00 in0.0 mm 0.28 in7.1 mm
12:15 PM 48.2°F9.0°C 48.2°F9.0°C 100% 2.8 mph SE4.5 kmh SE 9.5 mph15.3 kmh 30.20 in1022.7 mb 0.03 in0.8 mm 0.00 in0.0 mm 0.28 in7.1 mm
12:30 PM 47.1°F8.4°C 47.1°F8.4°C 100% 3.9 mph SE6.3 kmh SE 13.4 mph21.6 kmh 30.21 in1023.0 mb 0.01 in0.3 mm 0.00 in0.0 mm 0.28 in7.1 mm
12:45 PM 46.9°F8.3°C 46.9°F8.3°C 100% 0.8 mph SE1.3 kmh SE 6.7 mph10.8 kmh 30.23 in1023.7 mb 0.01 in0.3 mm 0.00 in0.0 mm 0.28 in7.1 mm
01:00 PM 46.6°F8.1°C 46.6°F8.1°C 100% 0.8 mph SE1.3 kmh SE 10.3 mph16.6 kmh 30.25 in1024.4 mb 0.00 in0.0 mm 0.00 in0.0 mm 0.28 in7.1 mm
01:15 PM 45.5°F7.5°C 45.5°F7.5°C 100% 3.9 mph WNW6.3 kmh WNW 12.3 mph19.8 kmh 30.27 in1025.1 mb 0.01 in0.3 mm 0.04 in1.0 mm 0.29 in7.4 mm
01:30 PM 43.5°F6.4°C 43.5°F6.4°C 100% 3.9 mph WSW6.3 kmh WSW 14.3 mph23.0 kmh 30.28 in1025.4 mb 0.01 in0.3 mm 0.00 in0.0 mm 0.29 in7.4 mm
01:45 PM 42.6°F5.9°C 42.6°F5.9°C 100% 5.6 mph W9.0 kmh W 16.2 mph26.1 kmh 30.31 in1026.4 mb 0.01 in0.3 mm 0.00 in0.0 mm 0.29 in7.4 mm
02:00 PM 41.2°F5.1°C 41.2°F5.1°C 100% 3.9 mph W6.3 kmh W 21.0 mph33.8 kmh 30.32 in1026.8 mb 0.01 in0.3 mm 0.00 in0.0 mm 0.29 in7.4 mm
02:15 PM 40.3°F4.6°C 40.3°F4.6°C 100% 2.0 mph SW3.2 kmh SW 14.3 mph23.0 kmh 30.35 in1027.8 mb 0.00 in0.0 mm 0.00 in0.0 mm 0.29 in7.4 mm
02:30 PM 39.4°F4.1°C 39.4°F4.1°C 100% 4.8 mph S7.7 kmh S 16.2 mph26.1 kmh 30.36 in1028.1 mb 0.00 in0.0 mm 0.00 in0.0 mm 0.29 in7.4 mm
02:45 PM 38.3°F3.5°C 38.3°F3.5°C 100% 2.8 mph S4.5 kmh S 15.1 mph24.3 kmh 30.39 in1029.1 mb 0.00 in0.0 mm 0.00 in0.0 mm 0.29 in7.4 mm
03:00 PM 37.9°F3.3°C 37.9°F3.3°C 100% 2.8 mph S4.5 kmh S 12.3 mph19.8 kmh 30.39 in1029.1 mb 0.00 in0.0 mm 0.00 in0.0 mm 0.29 in7.4 mm
03:15 PM 37.8°F3.2°C 37.8°F3.2°C 100% 2.8 mph S4.5 kmh S 10.3 mph16.6 kmh 30.41 in1029.8 mb 0.00 in0.0 mm 0.00 in0.0 mm 0.29 in7.4 mm
03:30 PM 37.8°F3.2°C 37.8°F3.2°C 100% 2.8 mph S4.5 kmh S 10.3 mph16.6 kmh 30.43 in1030.5 mb 0.00 in0.0 mm 0.00 in0.0 mm 0.29 in7.4 mm
03:45 PM 39.4°F4.1°C 39.4°F4.1°C 100% 2.8 mph S4.5 kmh S 13.4 mph21.6 kmh 30.44 in1030.8 mb 0.00 in0.0 mm 0.00 in0.0 mm 0.29 in7.4 mm
04:00 PM 38.3°F3.5°C 38.3°F3.5°C 100% 2.0 mph S3.2 kmh S 6.7 mph10.8 kmh 30.45 in1031.2 mb 0.00 in0.0 mm 0.00 in0.0 mm 0.29 in7.4 mm
04:15 PM 38.7°F3.7°C 38.7°F3.7°C 100% 2.8 mph S4.5 kmh S 8.7 mph14.0 kmh 30.45 in1031.2 mb 0.00 in0.0 mm 0.00 in0.0 mm 0.29 in7.4 mm
04:30 PM 39.0°F3.9°C 39.0°F3.9°C 100% 2.0 mph S3.2 kmh S 12.3 mph19.8 kmh 30.46 in1031.5 mb 0.00 in0.0 mm 0.00 in0.0 mm 0.29 in7.4 mm
04:45 PM 38.7°F3.7°C 38.1°F3.4°C 98% 2.0 mph S3.2 kmh S 12.3 mph19.8 kmh 30.47 in1031.8 mb 0.00 in0.0 mm 0.00 in0.0 mm 0.29 in7.4 mm
05:00 PM 38.3°F3.5°C 37.0°F2.8°C 95% 2.8 mph S4.5 kmh S 9.5 mph15.3 kmh 30.48 in1032.2 mb 0.00 in0.0 mm 0.00 in0.0 mm 0.29 in7.4 mm
05:15 PM 37.9°F3.3°C 35.6°F2.0°C 91% 2.0 mph S3.2 kmh S 11.5 mph18.5 kmh 30.49 in1032.5 mb 0.00 in0.0 mm 0.00 in0.0 mm 0.29 in7.4 mm
05:30 PM 37.6°F3.1°C 34.4°F1.3°C 88% 0.8 mph S1.3 kmh S 9.5 mph15.3 kmh 30.51 in1033.2 mb 0.00 in0.0 mm 0.00 in0.0 mm 0.29 in7.4 mm
05:45 PM 37.4°F3.0°C 33.3°F0.7°C 85% 0.8 mph S1.3 kmh S 7.5 mph12.1 kmh 30.52 in1033.5 mb 0.00 in0.0 mm 0.00 in0.0 mm 0.29 in7.4 mm
06:00 PM 37.0°F2.8°C 32.4°F0.2°C 83% 0.8 mph S1.3 kmh S 11.5 mph18.5 kmh 30.54 in1034.2 mb 0.00 in0.0 mm 0.00 in0.0 mm 0.29 in7.4 mm
06:15 PM 36.9°F2.7°C 31.6°F-0.2°C 81% 0.8 mph S1.3 kmh S 6.7 mph10.8 kmh 30.55 in1034.5 mb 0.00 in0.0 mm 0.00 in0.0 mm 0.29 in7.4 mm
06:30 PM 36.5°F2.5°C 30.6°F-0.8°C 79% 0.8 mph S1.3 kmh S 8.7 mph14.0 kmh 30.56 in1034.9 mb 0.00 in0.0 mm 0.00 in0.0 mm 0.29 in7.4 mm
06:45 PM 36.1°F2.3°C 30.3°F-0.9°C 79% 2.0 mph S3.2 kmh S 5.6 mph9.0 kmh 30.57 in1035.2 mb 0.00 in0.0 mm 0.00 in0.0 mm 0.29 in7.4 mm
07:00 PM 35.8°F2.1°C 29.6°F-1.3°C 78% 0.8 mph S1.3 kmh S 4.8 mph7.7 kmh 30.58 in1035.6 mb 0.00 in0.0 mm 0.00 in0.0 mm 0.29 in7.4 mm
07:15 PM 35.4°F1.9°C 28.9°F-1.7°C 77% 0.8 mph S1.3 kmh S 6.7 mph10.8 kmh 30.58 in1035.6 mb 0.00 in0.0 mm 0.00 in0.0 mm 0.29 in7.4 mm
07:30 PM 35.1°F1.7°C 28.6°F-1.9°C 77% 0.8 mph S1.3 kmh S 5.6 mph9.0 kmh 30.60 in1036.2 mb 0.00 in0.0 mm 0.00 in0.0 mm 0.29 in7.4 mm
07:45 PM 34.7°F1.5°C 28.2°F-2.1°C 77% 0.8 mph S1.3 kmh S 7.5 mph12.1 kmh 30.59 in1035.9 mb 0.00 in0.0 mm 0.00 in0.0 mm 0.29 in7.4 mm
08:00 PM 34.5°F1.4°C 27.8°F-2.3°C 76% 3.9 mph S6.3 kmh S 9.5 mph15.3 kmh 30.61 in1036.6 mb 0.00 in0.0 mm 0.00 in0.0 mm 0.29 in7.4 mm
08:15 PM 34.3°F1.3°C 27.3°F-2.6°C 75% 2.0 mph S3.2 kmh S 7.5 mph12.1 kmh 30.62 in1036.9 mb 0.00 in0.0 mm 0.00 in0.0 mm 0.29 in7.4 mm
08:30 PM 34.2°F1.2°C 26.4°F-3.1°C 73% 2.0 mph S3.2 kmh S 8.7 mph14.0 kmh 30.63 in1037.3 mb 0.00 in0.0 mm 0.00 in0.0 mm 0.29 in7.4 mm
08:45 PM 33.8°F1.0°C 25.8°F-3.4°C 72% Calm Calm 4.8 mph7.7 kmh 30.64 in1037.6 mb 0.00 in0.0 mm 0.00 in0.0 mm 0.29 in7.4 mm
09:00 PM 33.3°F0.7°C 24.6°F-4.1°C 70% 2.0 mph S3.2 kmh S 6.7 mph10.8 kmh 30.64 in1037.6 mb 0.00 in0.0 mm 0.00 in0.0 mm 0.29 in7.4 mm
09:15 PM 32.7°F0.4°C 23.3°F-4.8°C 68% 2.0 mph S3.2 kmh S 12.3 mph19.8 kmh 30.65 in1037.9 mb 0.00 in0.0 mm 0.00 in0.0 mm 0.29 in7.4 mm
09:30 PM 32.4°F0.2°C 22.3°F-5.4°C 66% 0.8 mph S1.3 kmh S 5.6 mph9.0 kmh 30.65 in1037.9 mb 0.00 in0.0 mm 0.00 in0.0 mm 0.29 in7.4 mm
09:45 PM 31.8°F-0.1°C 21.4°F-5.9°C 65% 2.0 mph S3.2 kmh S 8.7 mph14.0 kmh 30.66 in1038.3 mb 0.00 in0.0 mm 0.00 in0.0 mm 0.29 in7.4 mm
10:00 PM 31.5°F-0.3°C 20.7°F-6.3°C 64% 0.8 mph S1.3 kmh S 6.7 mph10.8 kmh 30.66 in1038.3 mb 0.00 in0.0 mm 0.00 in0.0 mm 0.29 in7.4 mm
10:15 PM 30.9°F-0.6°C 20.2°F-6.6°C 64% Calm Calm 4.8 mph7.7 kmh 30.67 in1038.6 mb 0.00 in0.0 mm 0.00 in0.0 mm 0.29 in7.4 mm
10:30 PM 30.6°F-0.8°C 19.5°F-6.9°C 63% Calm Calm 2.8 mph4.5 kmh 30.67 in1038.6 mb 0.00 in0.0 mm 0.00 in0.0 mm 0.29 in7.4 mm
10:45 PM 29.8°F-1.2°C 18.8°F-7.3°C 63% 0.8 mph S1.3 kmh S 3.9 mph6.3 kmh 30.69 in1039.3 mb 0.00 in0.0 mm 0.00 in0.0 mm 0.29 in7.4 mm
11:00 PM 29.3°F-1.5°C 18.7°F-7.4°C 64% 0.8 mph S1.3 kmh S 2.8 mph4.5 kmh 30.69 in1039.3 mb 0.00 in0.0 mm 0.00 in0.0 mm 0.29 in7.4 mm
11:15 PM 28.6°F-1.9°C 18.0°F-7.8°C 64% 0.8 mph S1.3 kmh S 4.8 mph7.7 kmh 30.70 in1039.6 mb 0.00 in0.0 mm 0.00 in0.0 mm 0.29 in7.4 mm
11:30 PM 28.0°F-2.2°C 17.8°F-7.9°C 65% Calm Calm 2.8 mph4.5 kmh 30.70 in1039.6 mb 0.00 in0.0 mm 0.00 in0.0 mm 0.29 in7.4 mm
11:45 PM 27.5°F-2.5°C 17.7°F-7.9°C 66% Calm Calm 2.8 mph4.5 kmh 30.71 in1040.0 mb 0.00 in0.0 mm 0.00 in0.0 mm 0.29 in7.4 mm